sensor_id;sensor_type;location;lat;lon;timestamp;temperature;humidity
21722;DHT22;11023;48.274;7.794;2024-02-21T00:02:21;6.50;99.90
21722;DHT22;11023;48.274;7.794;2024-02-21T00:04:47;6.50;99.90
21722;DHT22;11023;48.274;7.794;2024-02-21T00:07:13;6.50;99.90
21722;DHT22;11023;48.274;7.794;2024-02-21T00:09:38;6.50;99.90
21722;DHT22;11023;48.274;7.794;2024-02-21T00:12:04;6.50;99.90
21722;DHT22;11023;48.274;7.794;2024-02-21T00:14:31;6.50;99.90
21722;DHT22;11023;48.274;7.794;2024-02-21T00:16:57;6.50;99.90
21722;DHT22;11023;48.274;7.794;2024-02-21T00:19:23;6.50;99.90
21722;DHT22;11023;48.274;7.794;2024-02-21T00:21:49;6.50;99.90
21722;DHT22;11023;48.274;7.794;2024-02-21T00:24:14;6.60;99.90
21722;DHT22;11023;48.274;7.794;2024-02-21T00:26:40;6.60;99.90
21722;DHT22;11023;48.274;7.794;2024-02-21T00:29:06;6.60;99.90
21722;DHT22;11023;48.274;7.794;2024-02-21T00:31:31;6.70;99.90
21722;DHT22;11023;48.274;7.794;2024-02-21T00:33:57;6.70;99.90
21722;DHT22;11023;48.274;7.794;2024-02-21T00:36:23;6.80;99.90
21722;DHT22;11023;48.274;7.794;2024-02-21T00:38:49;6.80;99.90
21722;DHT22;11023;48.274;7.794;2024-02-21T00:41:14;6.80;99.90
21722;DHT22;11023;48.274;7.794;2024-02-21T00:43:41;6.80;99.90
21722;DHT22;11023;48.274;7.794;2024-02-21T00:46:07;6.80;99.90
21722;DHT22;11023;48.274;7.794;2024-02-21T00:48:33;6.80;99.90
21722;DHT22;11023;48.274;7.794;2024-02-21T00:50:59;6.80;99.90
21722;DHT22;11023;48.274;7.794;2024-02-21T00:53:25;6.80;99.90
21722;DHT22;11023;48.274;7.794;2024-02-21T00:55:50;6.90;99.90
21722;DHT22;11023;48.274;7.794;2024-02-21T00:58:16;6.90;99.90
21722;DHT22;11023;48.274;7.794;2024-02-21T01:00:42;7.00;99.90
21722;DHT22;11023;48.274;7.794;2024-02-21T01:03:07;7.00;99.90
21722;DHT22;11023;48.274;7.794;2024-02-21T01:05:33;6.90;99.90
21722;DHT22;11023;48.274;7.794;2024-02-21T01:07:58;6.90;99.90
21722;DHT22;11023;48.274;7.794;2024-02-21T01:10:24;6.90;99.90
21722;DHT22;11023;48.274;7.794;2024-02-21T01:12:50;6.90;99.90
21722;DHT22;11023;48.274;7.794;2024-02-21T01:15:15;6.90;99.90
21722;DHT22;11023;48.274;7.794;2024-02-21T01:17:41;6.90;99.90
21722;DHT22;11023;48.274;7.794;2024-02-21T01:20:07;6.90;99.90
21722;DHT22;11023;48.274;7.794;2024-02-21T01:22:33;6.90;99.90
21722;DHT22;11023;48.274;7.794;2024-02-21T01:24:59;7.00;99.90
21722;DHT22;11023;48.274;7.794;2024-02-21T01:27:24;6.90;99.90
21722;DHT22;11023;48.274;7.794;2024-02-21T01:29:50;6.90;99.90
21722;DHT22;11023;48.274;7.794;2024-02-21T01:32:16;7.00;99.90
21722;DHT22;11023;48.274;7.794;2024-02-21T01:34:42;7.00;99.90
21722;DHT22;11023;48.274;7.794;2024-02-21T01:37:07;7.00;99.90
21722;DHT22;11023;48.274;7.794;2024-02-21T01:39:33;7.00;99.90
21722;DHT22;11023;48.274;7.794;2024-02-21T01:41:59;7.00;99.90
21722;DHT22;11023;48.274;7.794;2024-02-21T01:44:25;7.00;99.90
21722;DHT22;11023;48.274;7.794;2024-02-21T01:46:55;7.00;99.90
21722;DHT22;11023;48.274;7.794;2024-02-21T01:49:21;7.00;99.90
21722;DHT22;11023;48.274;7.794;2024-02-21T01:51:47;7.00;99.90
21722;DHT22;11023;48.274;7.794;2024-02-21T01:54:14;7.00;99.90
21722;DHT22;11023;48.274;7.794;2024-02-21T01:56:42;7.00;99.90
21722;DHT22;11023;48.274;7.794;2024-02-21T01:59:08;7.10;99.90
21722;DHT22;11023;48.274;7.794;2024-02-21T02:01:34;7.10;99.90
21722;DHT22;11023;48.274;7.794;2024-02-21T02:04:00;7.10;99.90
21722;DHT22;11023;48.274;7.794;2024-02-21T02:06:26;7.10;99.90
21722;DHT22;11023;48.274;7.794;2024-02-21T02:08:52;7.20;99.90
21722;DHT22;11023;48.274;7.794;2024-02-21T02:11:18;7.20;99.90
21722;DHT22;11023;48.274;7.794;2024-02-21T02:13:44;7.20;99.90
21722;DHT22;11023;48.274;7.794;2024-02-21T02:16:10;7.30;99.90
21722;DHT22;11023;48.274;7.794;2024-02-21T02:18:37;7.30;99.90
21722;DHT22;11023;48.274;7.794;2024-02-21T02:21:05;7.40;99.90
21722;DHT22;11023;48.274;7.794;2024-02-21T02:23:33;7.40;99.90
21722;DHT22;11023;48.274;7.794;2024-02-21T02:26:00;7.40;99.90
21722;DHT22;11023;48.274;7.794;2024-02-21T02:28:27;7.40;99.90
21722;DHT22;11023;48.274;7.794;2024-02-21T02:30:52;7.40;99.90
21722;DHT22;11023;48.274;7.794;2024-02-21T02:33:18;7.40;99.90
21722;DHT22;11023;48.274;7.794;2024-02-21T02:35:46;7.40;99.90
21722;DHT22;11023;48.274;7.794;2024-02-21T02:38:12;7.40;99.90
21722;DHT22;11023;48.274;7.794;2024-02-21T02:40:38;7.40;99.90
21722;DHT22;11023;48.274;7.794;2024-02-21T02:43:05;7.30;99.90
21722;DHT22;11023;48.274;7.794;2024-02-21T02:45:32;7.30;99.90
21722;DHT22;11023;48.274;7.794;2024-02-21T02:47:58;7.20;99.90
21722;DHT22;11023;48.274;7.794;2024-02-21T02:50:24;7.10;99.90
21722;DHT22;11023;48.274;7.794;2024-02-21T02:52:50;7.10;99.90
21722;DHT22;11023;48.274;7.794;2024-02-21T02:55:16;7.10;99.90
21722;DHT22;11023;48.274;7.794;2024-02-21T02:57:42;7.00;99.90
21722;DHT22;11023;48.274;7.794;2024-02-21T03:00:09;7.00;99.90
21722;DHT22;11023;48.274;7.794;2024-02-21T03:02:37;7.00;99.90
21722;DHT22;11023;48.274;7.794;2024-02-21T03:05:14;7.00;99.90
21722;DHT22;11023;48.274;7.794;2024-02-21T03:07:42;6.90;99.90
21722;DHT22;11023;48.274;7.794;2024-02-21T03:10:09;6.80;99.90
21722;DHT22;11023;48.274;7.794;2024-02-21T03:12:35;6.80;99.90
21722;DHT22;11023;48.274;7.794;2024-02-21T03:15:01;6.70;99.90
21722;DHT22;11023;48.274;7.794;2024-02-21T03:17:27;6.60;99.90
21722;DHT22;11023;48.274;7.794;2024-02-21T03:19:53;6.60;99.90
21722;DHT22;11023;48.274;7.794;2024-02-21T03:22:22;6.50;99.90
21722;DHT22;11023;48.274;7.794;2024-02-21T03:24:48;6.50;99.90
21722;DHT22;11023;48.274;7.794;2024-02-21T03:27:14;6.40;99.90
21722;DHT22;11023;48.274;7.794;2024-02-21T03:29:39;6.30;99.90
21722;DHT22;11023;48.274;7.794;2024-02-21T03:32:06;6.30;99.90
21722;DHT22;11023;48.274;7.794;2024-02-21T03:34:32;6.20;99.90
21722;DHT22;11023;48.274;7.794;2024-02-21T03:36:58;6.30;99.90
21722;DHT22;11023;48.274;7.794;2024-02-21T03:39:24;6.20;99.90
21722;DHT22;11023;48.274;7.794;2024-02-21T03:41:51;6.20;99.90
21722;DHT22;11023;48.274;7.794;2024-02-21T03:44:17;6.10;99.90
21722;DHT22;11023;48.274;7.794;2024-02-21T03:46:42;6.10;99.90
21722;DHT22;11023;48.274;7.794;2024-02-21T03:49:08;6.10;99.90
21722;DHT22;11023;48.274;7.794;2024-02-21T03:51:34;6.10;99.90
21722;DHT22;11023;48.274;7.794;2024-02-21T03:54:00;6.10;99.90
21722;DHT22;11023;48.274;7.794;2024-02-21T03:56:26;6.10;99.90
21722;DHT22;11023;48.274;7.794;2024-02-21T03:58:52;6.10;99.90
21722;DHT22;11023;48.274;7.794;2024-02-21T04:01:18;6.10;99.90
21722;DHT22;11023;48.274;7.794;2024-02-21T04:03:44;6.10;99.90
21722;DHT22;11023;48.274;7.794;2024-02-21T04:06:10;6.10;99.90
21722;DHT22;11023;48.274;7.794;2024-02-21T04:08:36;6.00;99.90
21722;DHT22;11023;48.274;7.794;2024-02-21T04:11:02;6.00;99.90
21722;DHT22;11023;48.274;7.794;2024-02-21T04:13:29;6.00;99.90
21722;DHT22;11023;48.274;7.794;2024-02-21T04:15:54;5.90;99.90
21722;DHT22;11023;48.274;7.794;2024-02-21T04:18:20;5.90;99.90
21722;DHT22;11023;48.274;7.794;2024-02-21T04:20:47;5.80;99.90
21722;DHT22;11023;48.274;7.794;2024-02-21T04:23:12;5.80;99.90
21722;DHT22;11023;48.274;7.794;2024-02-21T04:25:38;5.70;99.90
21722;DHT22;11023;48.274;7.794;2024-02-21T04:28:04;5.70;99.90
21722;DHT22;11023;48.274;7.794;2024-02-21T04:30:30;5.70;99.90
21722;DHT22;11023;48.274;7.794;2024-02-21T04:32:56;5.70;99.90
21722;DHT22;11023;48.274;7.794;2024-02-21T04:35:23;5.70;99.90
21722;DHT22;11023;48.274;7.794;2024-02-21T04:37:49;5.70;99.90
21722;DHT22;11023;48.274;7.794;2024-02-21T04:40:15;5.70;99.90
21722;DHT22;11023;48.274;7.794;2024-02-21T04:42:42;5.70;99.90
21722;DHT22;11023;48.274;7.794;2024-02-21T04:45:09;5.70;99.90
21722;DHT22;11023;48.274;7.794;2024-02-21T04:47:35;5.70;99.90
21722;DHT22;11023;48.274;7.794;2024-02-21T04:50:00;5.70;99.90
21722;DHT22;11023;48.274;7.794;2024-02-21T04:52:26;5.70;99.90
21722;DHT22;11023;48.274;7.794;2024-02-21T04:54:52;5.70;99.90
21722;DHT22;11023;48.274;7.794;2024-02-21T04:57:18;5.70;99.90
21722;DHT22;11023;48.274;7.794;2024-02-21T04:59:44;5.80;99.90
21722;DHT22;11023;48.274;7.794;2024-02-21T05:02:11;5.80;99.90
21722;DHT22;11023;48.274;7.794;2024-02-21T05:04:37;5.80;99.90
21722;DHT22;11023;48.274;7.794;2024-02-21T05:07:04;5.90;99.90
21722;DHT22;11023;48.274;7.794;2024-02-21T05:09:33;5.90;99.90
21722;DHT22;11023;48.274;7.794;2024-02-21T05:12:00;5.80;99.90
21722;DHT22;11023;48.274;7.794;2024-02-21T05:14:26;5.70;99.90
21722;DHT22;11023;48.274;7.794;2024-02-21T05:16:55;5.70;99.90
21722;DHT22;11023;48.274;7.794;2024-02-21T05:19:21;5.60;99.90
21722;DHT22;11023;48.274;7.794;2024-02-21T05:21:47;5.60;99.90
21722;DHT22;11023;48.274;7.794;2024-02-21T05:24:12;5.50;99.90
21722;DHT22;11023;48.274;7.794;2024-02-21T05:26:38;5.40;99.90
21722;DHT22;11023;48.274;7.794;2024-02-21T05:29:04;5.40;99.90
21722;DHT22;11023;48.274;7.794;2024-02-21T05:31:55;5.40;99.90
21722;DHT22;11023;48.274;7.794;2024-02-21T05:34:22;5.20;99.90
21722;DHT22;11023;48.274;7.794;2024-02-21T05:36:48;5.10;99.90
21722;DHT22;11023;48.274;7.794;2024-02-21T05:39:15;5.00;99.90
21722;DHT22;11023;48.274;7.794;2024-02-21T05:41:42;5.00;99.90
21722;DHT22;11023;48.274;7.794;2024-02-21T05:44:08;5.00;99.90
21722;DHT22;11023;48.274;7.794;2024-02-21T05:46:34;4.90;99.90
21722;DHT22;11023;48.274;7.794;2024-02-21T05:49:00;4.90;99.90
21722;DHT22;11023;48.274;7.794;2024-02-21T05:51:26;4.90;99.90
21722;DHT22;11023;48.274;7.794;2024-02-21T05:53:52;4.90;99.90
21722;DHT22;11023;48.274;7.794;2024-02-21T05:56:17;4.80;99.90
21722;DHT22;11023;48.274;7.794;2024-02-21T05:58:44;4.80;99.90
21722;DHT22;11023;48.274;7.794;2024-02-21T06:01:10;4.80;99.90
21722;DHT22;11023;48.274;7.794;2024-02-21T06:03:36;4.80;99.90
21722;DHT22;11023;48.274;7.794;2024-02-21T06:06:02;4.70;99.90
21722;DHT22;11023;48.274;7.794;2024-02-21T06:08:30;4.70;99.90
21722;DHT22;11023;48.274;7.794;2024-02-21T06:10:56;4.60;99.90
21722;DHT22;11023;48.274;7.794;2024-02-21T06:13:23;4.70;99.90
21722;DHT22;11023;48.274;7.794;2024-02-21T06:15:52;4.60;99.90
21722;DHT22;11023;48.274;7.794;2024-02-21T06:18:19;4.60;99.90
21722;DHT22;11023;48.274;7.794;2024-02-21T06:20:46;4.50;99.90
21722;DHT22;11023;48.274;7.794;2024-02-21T06:23:16;4.50;99.90
21722;DHT22;11023;48.274;7.794;2024-02-21T06:25:43;4.50;99.90
21722;DHT22;11023;48.274;7.794;2024-02-21T06:28:10;4.50;99.90
21722;DHT22;11023;48.274;7.794;2024-02-21T06:30:37;4.50;99.90
21722;DHT22;11023;48.274;7.794;2024-02-21T06:33:03;4.50;99.90
21722;DHT22;11023;48.274;7.794;2024-02-21T06:35:29;4.50;99.90
21722;DHT22;11023;48.274;7.794;2024-02-21T06:37:54;4.60;99.90
21722;DHT22;11023;48.274;7.794;2024-02-21T06:40:22;4.60;99.90
21722;DHT22;11023;48.274;7.794;2024-02-21T06:42:48;4.60;99.90
21722;DHT22;11023;48.274;7.794;2024-02-21T06:45:14;4.60;99.90
21722;DHT22;11023;48.274;7.794;2024-02-21T06:47:40;4.70;99.90
21722;DHT22;11023;48.274;7.794;2024-02-21T06:50:06;4.70;99.90
21722;DHT22;11023;48.274;7.794;2024-02-21T06:52:32;4.70;99.90
21722;DHT22;11023;48.274;7.794;2024-02-21T06:54:58;4.70;99.90
21722;DHT22;11023;48.274;7.794;2024-02-21T06:57:23;4.70;99.90
21722;DHT22;11023;48.274;7.794;2024-02-21T06:59:50;4.70;99.90
21722;DHT22;11023;48.274;7.794;2024-02-21T07:02:16;4.70;99.90
21722;DHT22;11023;48.274;7.794;2024-02-21T07:04:41;4.70;99.90
21722;DHT22;11023;48.274;7.794;2024-02-21T07:07:07;4.70;99.90
21722;DHT22;11023;48.274;7.794;2024-02-21T07:09:33;4.70;99.90
21722;DHT22;11023;48.274;7.794;2024-02-21T07:11:59;4.70;99.90
21722;DHT22;11023;48.274;7.794;2024-02-21T07:14:25;4.70;99.90
21722;DHT22;11023;48.274;7.794;2024-02-21T07:16:51;4.70;99.90
21722;DHT22;11023;48.274;7.794;2024-02-21T07:19:17;4.70;99.90
21722;DHT22;11023;48.274;7.794;2024-02-21T07:21:43;4.70;99.90
21722;DHT22;11023;48.274;7.794;2024-02-21T07:24:09;4.80;99.90
21722;DHT22;11023;48.274;7.794;2024-02-21T07:26:35;4.80;99.90
21722;DHT22;11023;48.274;7.794;2024-02-21T07:29:00;4.80;99.90
21722;DHT22;11023;48.274;7.794;2024-02-21T07:31:27;4.90;99.90
21722;DHT22;11023;48.274;7.794;2024-02-21T07:33:53;5.00;99.90
21722;DHT22;11023;48.274;7.794;2024-02-21T07:36:29;5.10;99.90
21722;DHT22;11023;48.274;7.794;2024-02-21T07:38:56;5.20;99.90
21722;DHT22;11023;48.274;7.794;2024-02-21T07:41:22;5.30;99.90
21722;DHT22;11023;48.274;7.794;2024-02-21T07:43:47;5.40;99.90
21722;DHT22;11023;48.274;7.794;2024-02-21T07:46:14;5.40;99.90
21722;DHT22;11023;48.274;7.794;2024-02-21T07:48:40;5.40;99.90
21722;DHT22;11023;48.274;7.794;2024-02-21T07:51:06;5.40;99.90
21722;DHT22;11023;48.274;7.794;2024-02-21T07:53:31;5.50;99.90
21722;DHT22;11023;48.274;7.794;2024-02-21T07:55:57;5.60;99.90
21722;DHT22;11023;48.274;7.794;2024-02-21T07:58:23;5.60;99.90
21722;DHT22;11023;48.274;7.794;2024-02-21T08:00:49;5.70;99.90
21722;DHT22;11023;48.274;7.794;2024-02-21T08:03:14;5.80;99.90
21722;DHT22;11023;48.274;7.794;2024-02-21T08:05:43;5.80;99.90
21722;DHT22;11023;48.274;7.794;2024-02-21T08:08:08;5.90;99.90
21722;DHT22;11023;48.274;7.794;2024-02-21T08:10:34;5.90;99.90
21722;DHT22;11023;48.274;7.794;2024-02-21T08:13:00;6.00;99.90
21722;DHT22;11023;48.274;7.794;2024-02-21T08:15:25;6.10;99.90
21722;DHT22;11023;48.274;7.794;2024-02-21T08:17:55;6.20;99.90
21722;DHT22;11023;48.274;7.794;2024-02-21T08:20:25;6.20;99.90
21722;DHT22;11023;48.274;7.794;2024-02-21T08:22:51;6.30;99.90
21722;DHT22;11023;48.274;7.794;2024-02-21T08:25:18;6.40;99.90
21722;DHT22;11023;48.274;7.794;2024-02-21T08:27:44;6.40;99.90
21722;DHT22;11023;48.274;7.794;2024-02-21T08:30:11;6.50;99.90
21722;DHT22;11023;48.274;7.794;2024-02-21T08:32:37;6.50;99.90
21722;DHT22;11023;48.274;7.794;2024-02-21T08:35:03;6.70;99.90
21722;DHT22;11023;48.274;7.794;2024-02-21T08:37:29;6.70;99.90
21722;DHT22;11023;48.274;7.794;2024-02-21T08:39:54;6.80;99.90
21722;DHT22;11023;48.274;7.794;2024-02-21T08:42:20;6.80;99.90
21722;DHT22;11023;48.274;7.794;2024-02-21T08:44:46;6.90;99.90
21722;DHT22;11023;48.274;7.794;2024-02-21T08:47:11;6.90;99.90
21722;DHT22;11023;48.274;7.794;2024-02-21T08:49:37;7.00;99.90
21722;DHT22;11023;48.274;7.794;2024-02-21T08:52:03;7.10;99.90
21722;DHT22;11023;48.274;7.794;2024-02-21T08:54:29;7.20;99.90
21722;DHT22;11023;48.274;7.794;2024-02-21T08:56:55;7.20;99.90
21722;DHT22;11023;48.274;7.794;2024-02-21T08:59:22;7.30;99.90
21722;DHT22;11023;48.274;7.794;2024-02-21T09:01:47;7.40;99.90
21722;DHT22;11023;48.274;7.794;2024-02-21T09:04:13;7.50;99.90
21722;DHT22;11023;48.274;7.794;2024-02-21T09:06:39;7.60;99.90
21722;DHT22;11023;48.274;7.794;2024-02-21T09:09:08;7.70;99.90
21722;DHT22;11023;48.274;7.794;2024-02-21T09:11:35;7.80;99.90
21722;DHT22;11023;48.274;7.794;2024-02-21T09:14:01;7.90;99.90
21722;DHT22;11023;48.274;7.794;2024-02-21T09:16:32;7.90;99.90
21722;DHT22;11023;48.274;7.794;2024-02-21T09:18:58;8.00;99.90
21722;DHT22;11023;48.274;7.794;2024-02-21T09:21:23;8.10;99.90
21722;DHT22;11023;48.274;7.794;2024-02-21T09:23:49;8.20;99.90
21722;DHT22;11023;48.274;7.794;2024-02-21T09:26:15;8.30;99.90
21722;DHT22;11023;48.274;7.794;2024-02-21T09:28:42;8.30;99.90
21722;DHT22;11023;48.274;7.794;2024-02-21T09:31:08;8.50;99.90
21722;DHT22;11023;48.274;7.794;2024-02-21T09:33:34;8.60;99.90
21722;DHT22;11023;48.274;7.794;2024-02-21T09:36:00;8.70;99.90
21722;DHT22;11023;48.274;7.794;2024-02-21T09:38:26;8.80;99.90
21722;DHT22;11023;48.274;7.794;2024-02-21T09:40:59;9.00;99.90
21722;DHT22;11023;48.274;7.794;2024-02-21T09:43:29;9.20;99.90
21722;DHT22;11023;48.274;7.794;2024-02-21T09:46:00;9.30;99.90
21722;DHT22;11023;48.274;7.794;2024-02-21T09:51:38;9.60;99.90
21722;DHT22;11023;48.274;7.794;2024-02-21T09:54:07;9.70;99.90
21722;DHT22;11023;48.274;7.794;2024-02-21T09:56:33;9.80;99.90
21722;DHT22;11023;48.274;7.794;2024-02-21T09:58:59;10.00;99.90
21722;DHT22;11023;48.274;7.794;2024-02-21T10:01:28;10.10;99.90
21722;DHT22;11023;48.274;7.794;2024-02-21T10:03:54;10.20;99.90
21722;DHT22;11023;48.274;7.794;2024-02-21T10:06:20;10.30;99.90
21722;DHT22;11023;48.274;7.794;2024-02-21T10:08:52;10.30;99.90
21722;DHT22;11023;48.274;7.794;2024-02-21T10:11:24;10.50;99.90
21722;DHT22;11023;48.274;7.794;2024-02-21T10:14:07;10.50;99.90
21722;DHT22;11023;48.274;7.794;2024-02-21T10:16:34;10.60;99.90
21722;DHT22;11023;48.274;7.794;2024-02-21T10:19:00;10.80;99.90
21722;DHT22;11023;48.274;7.794;2024-02-21T10:21:26;10.80;99.90
21722;DHT22;11023;48.274;7.794;2024-02-21T10:23:51;10.90;99.90
21722;DHT22;11023;48.274;7.794;2024-02-21T10:26:19;11.00;99.90
21722;DHT22;11023;48.274;7.794;2024-02-21T10:28:45;11.10;99.90
21722;DHT22;11023;48.274;7.794;2024-02-21T10:31:24;11.20;99.90
21722;DHT22;11023;48.274;7.794;2024-02-21T10:34:08;11.20;99.90
21722;DHT22;11023;48.274;7.794;2024-02-21T10:36:34;11.30;99.90
21722;DHT22;11023;48.274;7.794;2024-02-21T10:39:00;11.40;99.90
21722;DHT22;11023;48.274;7.794;2024-02-21T10:41:25;11.50;99.90
21722;DHT22;11023;48.274;7.794;2024-02-21T10:43:54;11.50;99.90
21722;DHT22;11023;48.274;7.794;2024-02-21T10:46:21;11.50;99.90
21722;DHT22;11023;48.274;7.794;2024-02-21T10:48:48;11.60;99.90
21722;DHT22;11023;48.274;7.794;2024-02-21T10:51:20;11.70;99.90
21722;DHT22;11023;48.274;7.794;2024-02-21T10:56:28;11.80;99.90
21722;DHT22;11023;48.274;7.794;2024-02-21T10:58:54;11.80;99.90
21722;DHT22;11023;48.274;7.794;2024-02-21T11:01:22;11.90;99.90
21722;DHT22;11023;48.274;7.794;2024-02-21T11:03:53;12.00;99.90
21722;DHT22;11023;48.274;7.794;2024-02-21T11:06:20;12.00;99.90
21722;DHT22;11023;48.274;7.794;2024-02-21T11:08:47;12.00;99.90
21722;DHT22;11023;48.274;7.794;2024-02-21T11:11:15;12.10;99.90
21722;DHT22;11023;48.274;7.794;2024-02-21T11:13:46;12.20;99.90
21722;DHT22;11023;48.274;7.794;2024-02-21T11:16:21;12.30;99.90
21722;DHT22;11023;48.274;7.794;2024-02-21T11:18:47;12.30;99.90
21722;DHT22;11023;48.274;7.794;2024-02-21T11:21:12;12.30;99.90
21722;DHT22;11023;48.274;7.794;2024-02-21T11:23:38;12.40;99.90
21722;DHT22;11023;48.274;7.794;2024-02-21T11:26:10;12.40;99.90
21722;DHT22;11023;48.274;7.794;2024-02-21T11:28:44;12.40;99.90
21722;DHT22;11023;48.274;7.794;2024-02-21T11:31:14;12.40;99.90
21722;DHT22;11023;48.274;7.794;2024-02-21T11:33:43;12.50;99.90
21722;DHT22;11023;48.274;7.794;2024-02-21T11:36:26;12.60;99.90
21722;DHT22;11023;48.274;7.794;2024-02-21T11:38:52;12.60;99.90
21722;DHT22;11023;48.274;7.794;2024-02-21T11:41:21;12.70;99.90
21722;DHT22;11023;48.274;7.794;2024-02-21T11:43:49;12.70;99.90
21722;DHT22;11023;48.274;7.794;2024-02-21T11:46:16;12.80;99.90
21722;DHT22;11023;48.274;7.794;2024-02-21T11:48:42;12.80;99.90
21722;DHT22;11023;48.274;7.794;2024-02-21T11:51:22;12.90;99.90
21722;DHT22;11023;48.274;7.794;2024-02-21T11:53:52;13.00;99.90
21722;DHT22;11023;48.274;7.794;2024-02-21T11:56:18;13.10;99.90
21722;DHT22;11023;48.274;7.794;2024-02-21T11:58:46;13.10;99.90
21722;DHT22;11023;48.274;7.794;2024-02-21T12:01:13;13.10;99.90
21722;DHT22;11023;48.274;7.794;2024-02-21T12:03:39;13.20;99.90
21722;DHT22;11023;48.274;7.794;2024-02-21T12:06:07;13.20;99.90
21722;DHT22;11023;48.274;7.794;2024-02-21T12:08:43;13.20;99.90
21722;DHT22;11023;48.274;7.794;2024-02-21T12:11:22;13.30;99.90
21722;DHT22;11023;48.274;7.794;2024-02-21T12:14:01;13.40;99.90
21722;DHT22;11023;48.274;7.794;2024-02-21T12:16:29;13.50;99.90
21722;DHT22;11023;48.274;7.794;2024-02-21T12:18:56;13.50;99.90
21722;DHT22;11023;48.274;7.794;2024-02-21T12:21:35;13.50;99.90
21722;DHT22;11023;48.274;7.794;2024-02-21T12:24:14;13.60;99.90
21722;DHT22;11023;48.274;7.794;2024-02-21T12:26:40;13.60;99.90
21722;DHT22;11023;48.274;7.794;2024-02-21T12:29:06;13.70;99.90
21722;DHT22;11023;48.274;7.794;2024-02-21T12:31:35;13.70;99.90
21722;DHT22;11023;48.274;7.794;2024-02-21T12:34:01;13.70;99.90
21722;DHT22;11023;48.274;7.794;2024-02-21T12:36:27;13.80;99.90
21722;DHT22;11023;48.274;7.794;2024-02-21T12:38:52;13.80;99.90
21722;DHT22;11023;48.274;7.794;2024-02-21T12:41:18;13.80;99.90
21722;DHT22;11023;48.274;7.794;2024-02-21T12:43:44;13.90;99.90
21722;DHT22;11023;48.274;7.794;2024-02-21T12:46:09;13.90;99.90
21722;DHT22;11023;48.274;7.794;2024-02-21T12:48:35;14.00;99.90
21722;DHT22;11023;48.274;7.794;2024-02-21T12:51:01;14.10;99.90
21722;DHT22;11023;48.274;7.794;2024-02-21T12:53:26;14.10;99.90
21722;DHT22;11023;48.274;7.794;2024-02-21T12:55:52;14.10;99.90
21722;DHT22;11023;48.274;7.794;2024-02-21T12:58:18;14.00;99.90
21722;DHT22;11023;48.274;7.794;2024-02-21T13:00:44;14.10;99.90
21722;DHT22;11023;48.274;7.794;2024-02-21T13:03:10;14.10;99.90
21722;DHT22;11023;48.274;7.794;2024-02-21T13:05:38;14.10;99.90
21722;DHT22;11023;48.274;7.794;2024-02-21T13:08:11;14.10;99.90
21722;DHT22;11023;48.274;7.794;2024-02-21T13:10:37;14.10;99.90
21722;DHT22;11023;48.274;7.794;2024-02-21T13:13:03;14.10;99.90
21722;DHT22;11023;48.274;7.794;2024-02-21T13:15:29;14.10;99.90
21722;DHT22;11023;48.274;7.794;2024-02-21T13:17:56;14.10;99.90
21722;DHT22;11023;48.274;7.794;2024-02-21T13:20:25;14.10;99.90
21722;DHT22;11023;48.274;7.794;2024-02-21T13:22:51;14.20;99.90
21722;DHT22;11023;48.274;7.794;2024-02-21T13:25:17;14.20;99.90
21722;DHT22;11023;48.274;7.794;2024-02-21T13:27:46;14.30;99.90
21722;DHT22;11023;48.274;7.794;2024-02-21T13:30:12;14.30;99.90
21722;DHT22;11023;48.274;7.794;2024-02-21T13:32:38;14.30;99.90
21722;DHT22;11023;48.274;7.794;2024-02-21T13:35:04;14.30;99.90
21722;DHT22;11023;48.274;7.794;2024-02-21T13:37:31;14.30;99.90
21722;DHT22;11023;48.274;7.794;2024-02-21T13:39:57;14.30;99.90
21722;DHT22;11023;48.274;7.794;2024-02-21T13:42:22;14.30;99.90
21722;DHT22;11023;48.274;7.794;2024-02-21T13:44:49;14.30;99.90
21722;DHT22;11023;48.274;7.794;2024-02-21T13:47:15;14.30;99.90
21722;DHT22;11023;48.274;7.794;2024-02-21T13:49:41;14.30;99.90
21722;DHT22;11023;48.274;7.794;2024-02-21T13:52:07;14.20;99.90
21722;DHT22;11023;48.274;7.794;2024-02-21T13:54:32;14.30;99.90
21722;DHT22;11023;48.274;7.794;2024-02-21T13:56:58;14.30;99.90
21722;DHT22;11023;48.274;7.794;2024-02-21T13:59:24;14.30;99.90
21722;DHT22;11023;48.274;7.794;2024-02-21T14:01:51;14.30;99.90
21722;DHT22;11023;48.274;7.794;2024-02-21T14:04:17;14.30;99.90
21722;DHT22;11023;48.274;7.794;2024-02-21T14:06:42;14.40;99.90
21722;DHT22;11023;48.274;7.794;2024-02-21T14:09:09;14.40;99.90
21722;DHT22;11023;48.274;7.794;2024-02-21T14:11:35;14.40;99.90
21722;DHT22;11023;48.274;7.794;2024-02-21T14:14:01;14.30;99.90
21722;DHT22;11023;48.274;7.794;2024-02-21T14:16:27;14.40;99.90
21722;DHT22;11023;48.274;7.794;2024-02-21T14:18:52;14.40;99.90
21722;DHT22;11023;48.274;7.794;2024-02-21T14:21:19;14.30;99.90
21722;DHT22;11023;48.274;7.794;2024-02-21T14:23:46;14.30;99.90
21722;DHT22;11023;48.274;7.794;2024-02-21T14:26:12;14.30;99.90
21722;DHT22;11023;48.274;7.794;2024-02-21T14:28:39;14.30;99.90
21722;DHT22;11023;48.274;7.794;2024-02-21T14:31:06;14.30;99.90
21722;DHT22;11023;48.274;7.794;2024-02-21T14:33:35;14.30;99.90
21722;DHT22;11023;48.274;7.794;2024-02-21T14:36:00;14.20;99.90
21722;DHT22;11023;48.274;7.794;2024-02-21T14:38:26;14.20;99.90
21722;DHT22;11023;48.274;7.794;2024-02-21T14:40:53;14.20;99.90
21722;DHT22;11023;48.274;7.794;2024-02-21T14:43:18;14.20;99.90
21722;DHT22;11023;48.274;7.794;2024-02-21T14:45:47;14.20;99.90
21722;DHT22;11023;48.274;7.794;2024-02-21T14:48:15;14.00;99.90
21722;DHT22;11023;48.274;7.794;2024-02-21T14:50:41;14.10;99.90
21722;DHT22;11023;48.274;7.794;2024-02-21T14:53:09;14.00;99.90
21722;DHT22;11023;48.274;7.794;2024-02-21T14:55:36;14.00;99.90
21722;DHT22;11023;48.274;7.794;2024-02-21T14:58:02;13.90;99.90
21722;DHT22;11023;48.274;7.794;2024-02-21T15:00:27;13.90;99.90
21722;DHT22;11023;48.274;7.794;2024-02-21T15:02:57;13.90;99.90
21722;DHT22;11023;48.274;7.794;2024-02-21T15:05:23;13.90;99.90
21722;DHT22;11023;48.274;7.794;2024-02-21T15:07:49;13.90;99.90
21722;DHT22;11023;48.274;7.794;2024-02-21T15:10:16;13.80;99.90
21722;DHT22;11023;48.274;7.794;2024-02-21T15:12:46;13.80;99.90
21722;DHT22;11023;48.274;7.794;2024-02-21T15:15:13;13.80;99.90
21722;DHT22;11023;48.274;7.794;2024-02-21T15:17:39;13.70;99.90
21722;DHT22;11023;48.274;7.794;2024-02-21T15:20:05;13.70;99.90
21722;DHT22;11023;48.274;7.794;2024-02-21T15:22:34;13.70;99.90
21722;DHT22;11023;48.274;7.794;2024-02-21T15:25:00;13.60;99.90
21722;DHT22;11023;48.274;7.794;2024-02-21T15:27:27;13.60;99.90
21722;DHT22;11023;48.274;7.794;2024-02-21T15:29:55;13.60;99.90
21722;DHT22;11023;48.274;7.794;2024-02-21T15:32:23;13.60;99.90
21722;DHT22;11023;48.274;7.794;2024-02-21T15:34:49;13.50;99.90
21722;DHT22;11023;48.274;7.794;2024-02-21T15:37:15;13.60;99.90
21722;DHT22;11023;48.274;7.794;2024-02-21T15:39:41;13.50;99.90
21722;DHT22;11023;48.274;7.794;2024-02-21T15:42:09;13.50;99.90
21722;DHT22;11023;48.274;7.794;2024-02-21T15:44:35;13.50;99.90